Czech Airlines Technics uzavřela dlouhodobou spolupráci s Transavia Airlines

27.09.22 Vysoká kvalita služeb vynesla Czech Airlines Technics dlouhodobou spolupráci se společností Transavia Airlines. Nová dohoda o údržbě zahrnuje i nový typ A320neo, je platná od začátku září a bude pokrývat spolupráci příštích pět let, tedy do 31. srpna 2027 Celý článek

Letiště Václava Havla Praha v létě odbavilo přes 3,8 milionů cestujících

26.09.22 Letiště Praha má za sebou silnou letní sezónu, kterou zvládlo bez větších komplikací. Od června do srpna odbavilo přes 3,8 milionu cestujících, což je sice o třetinu méně než v rekordním roce 2019, nicméně trend je vzrůstající. Od začátku roku do konce srpna pak letištěm prošlo bezmála sedm milionů cestujících. Nejrušnějším dnem byl první červenec, kdy počet odbavených pasažérů překročil hranici 50 tisíc. Celý článek

Zprávy

aktualizováno

30.09.22 Celý článek

Všechny zprávy    

Všechny články

Zeptejte se odborníka

Zkušený personál jedné z největších leteckých škol Flying Academy je připraven Vám pomoci s jakýmikoli otázkami týkajícími se letectví.

Zeptejte se

Newsletter

Přihlaste se k odběru novinek.

Aktuální počasí

LKKB
LKKB 301800Z 08001KT CAVOK 11/06 Q1013 NOSIG

LKKV
LKKV 301830Z 18002KT CAVOK 07/05 Q1013

LKMT
LKMT 301830Z 14003KT 4000 BR OVC033 11/10 Q1014 NOSIG

LKPR
LKPR 301830Z 16003KT 100V190 CAVOK 10/07 Q1013 NOSIG

LKTB
LKTB 301830Z 08004KT 9999 FEW040 11/09 Q1014 NOSIG

Briefing

Kurzy měn

AUD AUD 16.59 Kč
EUR EUR 24.64 Kč
GBP GBP 28.21 Kč
HUF HUF 6.08 Kč
CHF CHF 25.80 Kč
USD USD 24.87 Kč